createdAt,value
2022-12-27T00:00:10.354Z,114.87
2022-12-27T00:02:43.394Z,114.90
2022-12-27T00:05:13.044Z,114.90
2022-12-27T00:07:40.506Z,114.63
2022-12-27T00:10:10.010Z,114.90
2022-12-27T00:12:37.061Z,114.13
2022-12-27T00:15:05.534Z,115.57
2022-12-27T00:17:32.566Z,115.10
2022-12-27T00:20:02.864Z,115.10
2022-12-27T00:22:32.518Z,115.37
2022-12-27T00:24:59.534Z,114.73
2022-12-27T00:27:27.318Z,115.33
2022-12-27T00:29:54.687Z,115.67
2022-12-27T00:32:22.161Z,114.90
2022-12-27T00:34:49.256Z,114.83
2022-12-27T00:37:16.275Z,115.10
2022-12-27T00:39:43.230Z,115.17
2022-12-27T00:42:10.443Z,115.77
2022-12-27T00:44:37.411Z,115.40
2022-12-27T00:47:04.902Z,114.10
2022-12-27T00:49:31.959Z,116.00
2022-12-27T00:51:59.397Z,115.77
2022-12-27T00:54:26.394Z,115.60
2022-12-27T00:56:53.481Z,115.77
2022-12-27T00:59:20.549Z,115.70
2022-12-27T01:01:47.795Z,115.77
2022-12-27T01:04:15.614Z,115.00
2022-12-27T01:06:43.064Z,115.20
2022-12-27T01:09:10.048Z,114.73
2022-12-27T01:11:37.071Z,115.70
2022-12-27T01:14:05.686Z,115.70
2022-12-27T01:16:34.686Z,115.30
2022-12-27T01:19:02.120Z,114.80
2022-12-27T01:21:30.761Z,115.30
2022-12-27T01:23:59.041Z,115.57
2022-12-27T01:26:26.549Z,112.47
2022-12-27T01:28:54.505Z,114.47
2022-12-27T01:31:27.749Z,115.60
2022-12-27T01:34:00.573Z,114.87
2022-12-27T01:36:30.661Z,115.70
2022-12-27T01:39:00.040Z,115.50
2022-12-27T01:41:55.799Z,114.97
2022-12-27T01:44:38.715Z,114.77
2022-12-27T01:47:54.884Z,114.57
2022-12-27T01:50:37.078Z,115.33
2022-12-27T01:53:30.586Z,115.60
2022-12-27T01:55:59.406Z,115.53
2022-12-27T01:58:38.212Z,115.77
2022-12-27T02:01:29.581Z,114.87
2022-12-27T02:04:08.018Z,113.97
2022-12-27T02:06:38.191Z,114.53
2022-12-27T02:09:40.674Z,114.67
2022-12-27T02:12:10.685Z,115.47
2022-12-27T02:14:49.136Z,115.47
2022-12-27T02:17:31.742Z,115.20
2022-12-27T02:20:21.391Z,113.87
2022-12-27T02:24:04.699Z,115.50
2022-12-27T02:26:58.183Z,114.17
2022-12-27T02:29:59.409Z,114.90
2022-12-27T02:33:07.635Z,115.10
2022-12-27T02:35:52.567Z,114.80
2022-12-27T02:38:29.487Z,114.87
2022-12-27T02:41:21.216Z,114.87
2022-12-27T02:44:07.026Z,113.87
2022-12-27T02:46:53.303Z,114.57
2022-12-27T02:49:56.118Z,114.67
2022-12-27T02:53:06.799Z,115.00
2022-12-27T02:56:28.528Z,114.30
2022-12-27T02:59:16.420Z,114.17
2022-12-27T03:02:25.981Z,113.33
2022-12-27T03:05:25.697Z,114.00
2022-12-27T03:08:23.684Z,115.47
2022-12-27T03:11:19.067Z,114.73
2022-12-27T03:14:37.156Z,114.67
2022-12-27T03:17:25.431Z,114.37
2022-12-27T03:20:19.531Z,113.80
2022-12-27T03:23:08.259Z,115.00
2022-12-27T03:25:37.464Z,114.63
2022-12-27T03:28:39.963Z,115.57
2022-12-27T03:31:43.056Z,113.70
2022-12-27T03:34:35.696Z,114.77
2022-12-27T03:37:37.677Z,114.70
2022-12-27T03:40:40.213Z,115.13
2022-12-27T03:43:15.428Z,114.83
2022-12-27T03:46:33.566Z,114.37
2022-12-27T03:49:38.952Z,114.17
2022-12-27T03:52:17.226Z,113.47
2022-12-27T03:54:50.063Z,114.73
2022-12-27T03:57:26.954Z,114.90
2022-12-27T03:59:55.093Z,113.97
2022-12-27T04:02:22.435Z,113.87
2022-12-27T04:04:50.340Z,114.00
2022-12-27T04:07:17.785Z,114.90
2022-12-27T04:10:03.699Z,115.47
2022-12-27T04:12:49.451Z,114.17
2022-12-27T04:15:35.358Z,114.80
2022-12-27T04:18:21.352Z,112.90
2022-12-27T04:21:07.139Z,114.70
2022-12-27T04:23:53.220Z,114.90
2022-12-27T04:26:39.197Z,114.50
2022-12-27T04:29:25.036Z,113.77
2022-12-27T04:32:10.865Z,114.50
2022-12-27T04:34:44.036Z,114.97
2022-12-27T04:37:19.445Z,113.17
2022-12-27T04:40:06.778Z,114.33
2022-12-27T04:42:52.732Z,114.03
2022-12-27T04:45:39.016Z,111.97
2022-12-27T04:48:33.423Z,111.87
2022-12-27T04:51:19.738Z,114.57
2022-12-27T04:54:05.567Z,114.87
2022-12-27T04:56:32.663Z,113.37
2022-12-27T04:59:18.529Z,114.70
2022-12-27T05:02:04.066Z,114.20
2022-12-27T05:04:38.430Z,114.47
2022-12-27T05:07:28.738Z,114.57
2022-12-27T05:10:16.389Z,114.50
2022-12-27T05:13:02.221Z,114.20
2022-12-27T05:15:29.750Z,113.07
2022-12-27T05:17:59.777Z,113.90
2022-12-27T05:20:26.744Z,114.37
2022-12-27T05:23:12.514Z,114.10
2022-12-27T05:25:45.703Z,113.33
2022-12-27T05:28:14.080Z,113.57
2022-12-27T05:30:44.314Z,114.40
2022-12-27T05:33:11.702Z,114.83
2022-12-27T05:35:38.994Z,114.37
2022-12-27T05:38:06.706Z,114.57
2022-12-27T05:40:34.286Z,114.77
2022-12-27T05:43:03.533Z,114.40
2022-12-27T05:45:31.191Z,114.27
2022-12-27T05:47:59.917Z,112.63
2022-12-27T05:50:27.070Z,113.93
2022-12-27T05:53:10.245Z,114.60
2022-12-27T05:55:37.321Z,114.77
2022-12-27T05:58:04.285Z,113.73
2022-12-27T06:00:31.582Z,114.13
2022-12-27T06:02:59.032Z,113.60
2022-12-27T06:05:26.336Z,112.90
2022-12-27T06:07:53.343Z,114.03
2022-12-27T06:10:20.451Z,114.27
2022-12-27T06:12:47.851Z,113.90
2022-12-27T06:15:15.270Z,113.50
2022-12-27T06:17:43.771Z,113.20
2022-12-27T06:20:10.861Z,114.40
2022-12-27T06:22:37.828Z,113.70
2022-12-27T06:25:07.856Z,113.60
2022-12-27T06:27:37.187Z,114.20
2022-12-27T06:30:05.101Z,113.47
2022-12-27T06:32:32.624Z,112.87
2022-12-27T06:35:00.008Z,114.17
2022-12-27T06:37:26.975Z,114.27
2022-12-27T06:39:54.403Z,113.40
2022-12-27T06:42:21.443Z,114.07
2022-12-27T06:44:48.864Z,113.80
2022-12-27T06:47:16.344Z,113.90
2022-12-27T06:49:43.290Z,114.27
2022-12-27T06:52:10.281Z,113.30
2022-12-27T06:54:37.673Z,113.60
2022-12-27T06:57:04.663Z,113.70
2022-12-27T06:59:31.629Z,113.70
2022-12-27T07:01:59.273Z,113.33
2022-12-27T07:04:26.851Z,112.97
2022-12-27T07:06:54.229Z,112.97
2022-12-27T07:09:21.183Z,113.70
2022-12-27T07:11:48.661Z,113.50
2022-12-27T07:14:16.052Z,112.27
2022-12-27T07:16:43.021Z,113.53
2022-12-27T07:19:10.382Z,113.97
2022-12-27T07:21:37.827Z,112.37
2022-12-27T07:24:05.674Z,113.30
2022-12-27T07:26:34.589Z,114.33
2022-12-27T07:29:02.362Z,113.60
2022-12-27T07:31:33.203Z,113.40
2022-12-27T07:34:03.625Z,113.13
2022-12-27T07:36:38.158Z,112.67
2022-12-27T07:39:07.534Z,113.87
2022-12-27T07:41:35.923Z,113.50
2022-12-27T07:44:04.108Z,113.70
2022-12-27T07:46:32.842Z,113.20
2022-12-27T07:49:00.546Z,112.27
2022-12-27T07:51:28.209Z,113.87
2022-12-27T07:53:55.876Z,113.80
2022-12-27T07:56:28.375Z,112.90
2022-12-27T07:58:59.849Z,112.20
2022-12-27T08:01:51.083Z,112.37
2022-12-27T08:04:18.572Z,112.33
2022-12-27T08:06:46.509Z,113.17
2022-12-27T08:09:20.681Z,112.27
2022-12-27T08:11:48.214Z,113.13
2022-12-27T08:14:15.593Z,113.60
2022-12-27T08:16:42.665Z,113.50
2022-12-27T08:19:09.648Z,113.47
2022-12-27T08:21:37.134Z,113.03
2022-12-27T08:24:05.003Z,113.20
2022-12-27T08:26:32.390Z,113.87
2022-12-27T08:28:59.463Z,113.57
2022-12-27T08:31:26.889Z,113.40
2022-12-27T08:33:58.697Z,112.70
2022-12-27T08:36:54.122Z,113.40
2022-12-27T08:39:13.530Z,113.87
2022-12-27T08:41:40.940Z,114.07
2022-12-27T08:44:09.597Z,113.67
2022-12-27T08:46:37.456Z,114.07
2022-12-27T08:49:05.314Z,113.57
2022-12-27T08:51:40.312Z,113.10
2022-12-27T08:54:09.108Z,113.70
2022-12-27T08:56:36.629Z,113.80
2022-12-27T08:59:03.776Z,113.77
2022-12-27T09:03:58.804Z,114.17
2022-12-27T09:06:27.790Z,113.70
2022-12-27T09:08:55.929Z,113.53
2022-12-27T09:11:26.966Z,112.67
2022-12-27T09:13:55.245Z,112.73
2022-12-27T09:16:27.488Z,114.07
2022-12-27T09:18:58.132Z,114.00
2022-12-27T09:21:29.784Z,113.50
2022-12-27T09:23:57.176Z,113.97
2022-12-27T09:26:30.880Z,113.40
2022-12-27T09:29:00.131Z,114.30
2022-12-27T09:31:28.323Z,113.97
2022-12-27T09:33:56.677Z,113.73
2022-12-27T09:36:29.737Z,114.07
2022-12-27T09:38:58.961Z,114.20
2022-12-27T09:45:15.453Z,114.10
2022-12-27T09:48:32.906Z,114.67
2022-12-27T09:51:25.177Z,114.13
2022-12-27T09:54:02.611Z,114.00
2022-12-27T09:56:54.606Z,114.47
2022-12-27T09:59:32.006Z,114.57
2022-12-27T10:01:59.948Z,114.47
2022-12-27T10:05:00.891Z,114.10
2022-12-27T10:07:47.603Z,113.77
2022-12-27T10:10:32.810Z,114.00
2022-12-27T10:13:25.483Z,114.23
2022-12-27T10:16:28.754Z,115.17
2022-12-27T10:19:38.548Z,114.80
2022-12-27T10:22:33.873Z,115.77
2022-12-27T10:25:13.152Z,115.87
2022-12-27T10:27:41.712Z,114.87
2022-12-27T10:30:21.597Z,114.20
2022-12-27T10:32:49.749Z,113.73
2022-12-27T10:35:20.765Z,116.27
2022-12-27T10:37:49.907Z,116.27
2022-12-27T10:40:45.652Z,115.90
2022-12-27T10:43:24.542Z,116.27
2022-12-27T10:45:52.014Z,116.57
2022-12-27T10:48:47.383Z,115.00
2022-12-27T10:51:18.564Z,116.07
2022-12-27T10:53:45.558Z,117.37
2022-12-27T10:56:38.693Z,115.30
2022-12-27T10:59:11.999Z,115.00
2022-12-27T11:01:39.800Z,117.00
2022-12-27T11:04:21.331Z,117.90
2022-12-27T11:07:18.315Z,115.50
2022-12-27T11:09:50.834Z,117.50
2022-12-27T11:12:32.072Z,117.00
2022-12-27T11:15:19.703Z,117.30
2022-12-27T11:17:50.126Z,117.50
2022-12-27T11:20:35.299Z,117.03
2022-12-27T11:23:10.159Z,116.90
2022-12-27T11:25:59.660Z,117.37
2022-12-27T11:28:42.927Z,116.07
2022-12-27T11:31:15.812Z,115.47
2022-12-27T11:33:58.962Z,114.83
2022-12-27T11:36:40.663Z,117.67
2022-12-27T11:39:11.513Z,117.67
2022-12-27T11:41:54.697Z,116.60
2022-12-27T11:44:34.462Z,117.00
2022-12-27T11:47:35.827Z,114.93
2022-12-27T11:51:00.324Z,115.57
2022-12-27T11:54:10.459Z,116.40
2022-12-27T11:56:44.455Z,116.83
2022-12-27T11:59:51.069Z,115.77
2022-12-27T12:02:57.765Z,115.97
2022-12-27T12:06:06.208Z,116.70
2022-12-27T12:09:03.615Z,116.33
2022-12-27T12:12:35.759Z,117.60
2022-12-27T12:16:09.129Z,116.10
2022-12-27T12:19:35.104Z,117.07
2022-12-27T12:22:34.679Z,117.10
2022-12-27T12:25:36.453Z,116.20
2022-12-27T12:29:05.436Z,114.60
2022-12-27T12:32:05.225Z,117.30
2022-12-27T12:35:25.313Z,116.87
2022-12-27T12:38:22.969Z,116.60
2022-12-27T12:41:50.436Z,116.60
2022-12-27T12:45:05.798Z,115.10
2022-12-27T12:48:21.394Z,116.67
2022-12-27T12:51:24.174Z,116.50
2022-12-27T12:54:05.982Z,115.87
2022-12-27T12:57:19.465Z,116.00
2022-12-27T13:00:30.918Z,116.00
2022-12-27T13:03:34.544Z,116.63
2022-12-27T13:06:59.990Z,115.67
2022-12-27T13:10:34.424Z,116.53
2022-12-27T13:13:50.605Z,116.10
2022-12-27T13:16:54.350Z,116.67
2022-12-27T13:19:55.698Z,116.93
2022-12-27T13:23:12.997Z,116.17
2022-12-27T13:26:31.598Z,117.07
2022-12-27T13:30:03.027Z,116.77
2022-12-27T13:32:53.837Z,117.37
2022-12-27T13:35:53.733Z,117.47
2022-12-27T13:39:12.784Z,116.90
2022-12-27T13:42:33.169Z,116.93
2022-12-27T13:45:34.359Z,115.57
2022-12-27T13:48:40.477Z,116.87
2022-12-27T13:51:50.264Z,116.90
2022-12-27T13:55:05.855Z,116.70
2022-12-27T13:58:08.747Z,116.77
2022-12-27T14:01:27.827Z,116.43
2022-12-27T14:04:12.398Z,116.97
2022-12-27T14:07:12.635Z,116.87
2022-12-27T14:09:58.174Z,117.10
2022-12-27T14:12:55.163Z,116.70
2022-12-27T14:15:51.836Z,116.50
2022-12-27T14:18:53.663Z,116.80
2022-12-27T14:22:04.659Z,116.90
2022-12-27T14:25:44.597Z,114.20
2022-12-27T14:28:59.513Z,116.97
2022-12-27T14:32:17.802Z,116.80
2022-12-27T14:35:30.592Z,116.77
2022-12-27T14:38:38.084Z,116.90
2022-12-27T14:42:26.860Z,114.90
2022-12-27T14:45:49.998Z,116.27
2022-12-27T14:48:58.339Z,115.67
2022-12-27T14:52:12.853Z,114.90
2022-12-27T14:55:30.034Z,113.67
2022-12-27T14:58:43.136Z,115.87
2022-12-27T15:01:50.000Z,116.10
2022-12-27T15:04:52.680Z,116.47
2022-12-27T15:08:05.008Z,117.07
2022-12-27T15:11:25.001Z,116.70
2022-12-27T15:14:43.366Z,115.27
2022-12-27T15:17:33.228Z,114.17
2022-12-27T15:20:36.134Z,116.20
2022-12-27T15:23:53.185Z,115.67
2022-12-27T15:26:50.443Z,115.57
2022-12-27T15:29:48.242Z,116.63
2022-12-27T15:32:35.456Z,115.17
2022-12-27T15:35:55.058Z,116.20
2022-12-27T15:38:55.267Z,116.07
2022-12-27T15:42:29.261Z,116.50
2022-12-27T15:46:01.077Z,116.10
2022-12-27T15:49:22.233Z,116.20
2022-12-27T15:52:44.952Z,116.80
2022-12-27T15:56:00.689Z,115.97
2022-12-27T15:58:29.012Z,115.87
2022-12-27T16:01:25.276Z,116.97
2022-12-27T16:03:54.978Z,115.77
2022-12-27T16:06:34.578Z,116.87
2022-12-27T16:09:23.894Z,116.40
2022-12-27T16:12:09.774Z,116.10
2022-12-27T16:14:43.728Z,114.70
2022-12-27T16:17:28.896Z,115.90
2022-12-27T16:20:19.260Z,114.80
2022-12-27T16:22:54.334Z,115.50
2022-12-27T16:25:38.609Z,116.10
2022-12-27T16:28:32.019Z,116.07
2022-12-27T16:31:08.862Z,115.93
2022-12-27T16:33:41.921Z,115.50
2022-12-27T16:36:12.251Z,115.97
2022-12-27T16:39:35.136Z,115.63
2022-12-27T16:42:07.955Z,115.90
2022-12-27T16:45:02.773Z,114.67
2022-12-27T16:47:57.023Z,114.87
2022-12-27T16:51:08.615Z,115.80
2022-12-27T16:54:04.200Z,114.97
2022-12-27T16:56:37.506Z,116.00
2022-12-27T17:00:01.333Z,116.30
2022-12-27T17:02:38.012Z,114.57
2022-12-27T17:05:17.041Z,115.20
2022-12-27T17:07:57.871Z,115.90
2022-12-27T17:10:27.780Z,115.70
2022-12-27T17:13:15.339Z,115.27
2022-12-27T17:16:04.245Z,115.40
2022-12-27T17:18:55.203Z,115.07
2022-12-27T17:21:36.017Z,114.17
2022-12-27T17:24:11.423Z,115.50
2022-12-27T17:27:13.583Z,114.40
2022-12-27T17:30:20.927Z,115.80
2022-12-27T17:33:12.197Z,114.57
2022-12-27T17:35:50.930Z,116.17
2022-12-27T17:39:19.584Z,114.67
2022-12-27T17:42:42.771Z,115.97
2022-12-27T17:45:42.202Z,115.93
2022-12-27T17:48:32.223Z,115.33
2022-12-27T17:51:12.672Z,114.03
2022-12-27T17:54:09.945Z,115.53
2022-12-27T17:57:15.412Z,113.63
2022-12-27T17:59:46.267Z,115.00
2022-12-27T18:02:37.992Z,115.60
2022-12-27T18:05:13.808Z,115.77
2022-12-27T18:07:43.815Z,115.30
2022-12-27T18:10:26.963Z,115.67
2022-12-27T18:12:59.749Z,115.20
2022-12-27T18:15:32.171Z,115.60
2022-12-27T18:18:06.284Z,114.60
2022-12-27T18:20:41.377Z,115.40
2022-12-27T18:23:17.844Z,115.10
2022-12-27T18:25:44.739Z,113.80
2022-12-27T18:28:33.931Z,114.17
2022-12-27T18:31:36.171Z,115.53
2022-12-27T18:34:35.684Z,114.27
2022-12-27T18:37:17.314Z,114.37
2022-12-27T18:40:01.528Z,114.90
2022-12-27T18:42:36.981Z,114.50
2022-12-27T18:45:33.482Z,113.77
2022-12-27T18:48:04.470Z,113.97
2022-12-27T18:50:34.606Z,114.80
2022-12-27T18:53:07.395Z,114.50
2022-12-27T18:55:35.082Z,114.63
2022-12-27T18:58:20.539Z,114.60
2022-12-27T19:01:02.238Z,114.40
2022-12-27T19:03:35.231Z,115.17
2022-12-27T19:06:10.157Z,111.10
2022-12-27T19:08:51.541Z,114.97
2022-12-27T19:11:36.187Z,114.20
2022-12-27T19:14:04.906Z,114.77
2022-12-27T19:16:34.753Z,114.70
2022-12-27T19:19:24.855Z,113.10
2022-12-27T19:21:52.140Z,113.80
2022-12-27T19:24:27.329Z,113.27
2022-12-27T19:27:21.991Z,113.97
2022-12-27T19:29:52.055Z,114.60
2022-12-27T19:32:34.088Z,112.87
2022-12-27T19:35:04.417Z,114.60
2022-12-27T19:37:33.540Z,113.27
2022-12-27T19:40:00.920Z,114.60
2022-12-27T19:42:34.620Z,114.00
2022-12-27T19:45:01.700Z,114.60
2022-12-27T19:47:28.768Z,113.77
2022-12-27T19:49:55.899Z,113.80
2022-12-27T19:52:27.073Z,114.47
2022-12-27T19:55:05.255Z,113.80
2022-12-27T19:57:32.746Z,114.00
2022-12-27T20:00:02.254Z,113.57
2022-12-27T20:02:32.275Z,113.70
2022-12-27T20:05:00.732Z,112.53
2022-12-27T20:07:28.194Z,114.57
2022-12-27T20:09:55.582Z,113.50
2022-12-27T20:12:22.554Z,113.10
2022-12-27T20:14:50.181Z,113.47
2022-12-27T20:17:18.239Z,114.77
2022-12-27T20:19:45.786Z,113.90
2022-12-27T20:22:12.795Z,113.90
2022-12-27T20:24:40.331Z,114.50
2022-12-27T20:27:07.358Z,113.17
2022-12-27T20:29:35.008Z,114.27
2022-12-27T20:32:02.863Z,113.10
2022-12-27T20:34:29.923Z,113.90
2022-12-27T20:36:58.142Z,113.07
2022-12-27T20:39:25.889Z,114.57
2022-12-27T20:41:53.337Z,114.10
2022-12-27T20:44:20.785Z,114.27
2022-12-27T20:46:48.450Z,112.82
2022-12-27T20:49:15.651Z,113.60
2022-12-27T20:51:42.705Z,111.67
2022-12-27T20:54:13.778Z,114.00
2022-12-27T20:56:40.997Z,113.20
2022-12-27T20:59:07.936Z,113.00
2022-12-27T21:01:35.413Z,113.90
2022-12-27T21:04:04.683Z,111.63
2022-12-27T21:06:32.218Z,112.40
2022-12-27T21:08:59.897Z,113.70
2022-12-27T21:11:32.489Z,113.93
2022-12-27T21:14:04.932Z,114.83
2022-12-27T21:16:35.210Z,114.22
2022-12-27T21:19:04.663Z,113.63
2022-12-27T21:21:37.880Z,114.10
2022-12-27T21:24:07.771Z,114.68
2022-12-27T21:26:38.520Z,112.87
2022-12-27T21:29:09.175Z,114.10
2022-12-27T21:31:37.227Z,114.40
2022-12-27T21:34:05.222Z,111.90
2022-12-27T21:36:34.044Z,113.67
2022-12-27T21:39:02.177Z,113.00
2022-12-27T21:41:33.931Z,113.07
2022-12-27T21:44:02.494Z,113.63
2022-12-27T21:46:42.502Z,114.57
2022-12-27T21:49:13.414Z,114.50
2022-12-27T21:51:43.150Z,113.07
2022-12-27T21:54:13.500Z,113.90
2022-12-27T21:56:41.202Z,113.60
2022-12-27T21:59:10.922Z,114.00
2022-12-27T22:01:50.778Z,111.83
2022-12-27T22:04:22.622Z,113.17
2022-12-27T22:06:50.417Z,113.23
2022-12-27T22:09:18.882Z,113.00
2022-12-27T22:11:46.503Z,111.90
2022-12-27T22:14:14.018Z,114.47
2022-12-27T22:16:41.655Z,113.27
2022-12-27T22:19:12.669Z,114.00
2022-12-27T22:21:41.670Z,114.73
2022-12-27T22:24:19.053Z,113.80
2022-12-27T22:26:48.348Z,110.60
2022-12-27T22:29:15.511Z,113.70
2022-12-27T22:31:43.137Z,113.17
2022-12-27T22:34:10.541Z,114.57
2022-12-27T22:36:37.795Z,113.87
2022-12-27T22:39:05.664Z,114.27
2022-12-27T22:41:35.799Z,113.10
2022-12-27T22:44:11.439Z,113.60
2022-12-27T22:47:06.913Z,114.47
2022-12-27T22:49:27.663Z,112.80
2022-12-27T22:51:54.601Z,113.50
2022-12-27T22:55:03.277Z,113.47
2022-12-27T22:57:09.407Z,114.00
2022-12-27T22:59:36.835Z,113.80
2022-12-27T23:02:03.880Z,114.57
2022-12-27T23:04:31.024Z,113.27
2022-12-27T23:07:01.532Z,112.67
2022-12-27T23:09:29.383Z,114.47
2022-12-27T23:11:56.869Z,113.17
2022-12-27T23:14:24.320Z,112.97
2022-12-27T23:16:51.579Z,113.60
2022-12-27T23:19:24.131Z,113.67
2022-12-27T23:21:51.532Z,112.77
2022-12-27T23:24:19.017Z,114.37
2022-12-27T23:26:46.168Z,111.93
2022-12-27T23:29:14.905Z,113.23
2022-12-27T23:31:54.957Z,114.07
2022-12-27T23:34:28.388Z,113.23
2022-12-27T23:37:00.916Z,112.37
2022-12-27T23:39:28.528Z,113.30
2022-12-27T23:41:56.384Z,114.23
2022-12-27T23:44:32.829Z,113.20
2022-12-27T23:47:01.611Z,111.47
2022-12-27T23:49:29.038Z,113.77
2022-12-27T23:51:56.493Z,113.07
2022-12-27T23:54:23.492Z,113.90
2022-12-27T23:56:50.492Z,113.20
2022-12-27T23:59:17.893Z,114.17
